»·PEaware :: N561GS KEGE-KGJT

N561GS :: KEGE-KGJT

FLIGHT INFORMATION

Flight Status: Arrived
Operator: Privately registered:
United States
More flights under this callsign
Pilot: Rich M. (25145)
Aircraft: SOCATA TBM-900
(TBM9)
More flights by this aircraft type
Origin: KEGE Eagle Co Regl
United States
Destination: KGJT Walker
United States
More flights between these airports :: More routes between these airports
Route: BEVVR1 SPRKT
File this flight plan on PilotEdge
Remarks:
Altitude:
(Current/Filed)
14,000ft
Speed:
(Current/Filed)
285kts
Departed: 02-Aug-19 10:17 AM
Arrived: 02-Aug-19 10:47 AM
Distance/Time
Traveled:
81nm/0:30
Distance/Time
To Go:
Arrived

Flight Plot

Page will automatically refresh every two minutes.

Flight plan parsing failed; only flown route is shown


Map Options




Map Legend


Flown Route
Filed Route
Departure Airport
Arrival Airport
Navaid (VOR, NDB)
Fix

Horizontal Profiles

Position Reports

Time Latitude Longitude Heading Altitude Ground
Speed
02-Aug-19 09:55 39.641423 -106.906757 262 6548ft 0kts
02-Aug-19 09:55 39.641423 -106.906757 262 6548ft 0kts
02-Aug-19 09:56 39.641423 -106.906757 262 6548ft 0kts
02-Aug-19 09:58 39.641423 -106.906757 262 6548ft 0kts
02-Aug-19 09:58 39.641423 -106.906757 262 6548ft 0kts
02-Aug-19 09:59 39.641423 -106.906757 262 6548ft 0kts
02-Aug-19 10:01 39.641423 -106.906757 262 6548ft 0kts
02-Aug-19 10:01 39.641423 -106.906757 262 6548ft 0kts
02-Aug-19 10:02 39.641423 -106.906757 262 6548ft 0kts
02-Aug-19 10:03 39.641423 -106.906757 262 6548ft 0kts
02-Aug-19 10:04 39.641423 -106.906757 262 6548ft 0kts
02-Aug-19 10:05 39.641423 -106.906757 262 6548ft 0kts
02-Aug-19 10:06 39.641423 -106.906757 262 6548ft 0kts
02-Aug-19 10:07 39.641423 -106.906758 265 6548ft 0kts
02-Aug-19 10:08 39.641423 -106.906758 265 6548ft 0kts
02-Aug-19 10:09 39.641624 -106.906858 29 6548ft 2kts
02-Aug-19 10:10 39.642810 -106.904926 81 6548ft 11kts
02-Aug-19 10:11 39.643317 -106.900498 67 6548ft 0kts
02-Aug-19 10:12 39.643398 -106.900326 49 6548ft 0kts
02-Aug-19 10:13 39.643415 -106.900299 49 6548ft 0kts
02-Aug-19 10:14 39.643415 -106.900299 49 6548ft 0kts
02-Aug-19 10:15 39.644294 -106.901951 262 6548ft 38kts
02-Aug-19 10:16 39.639180 -106.942062 239 7684ft 133kts
02-Aug-19 10:17 39.605516 -106.975729 215 9635ft 160kts
02-Aug-19 10:18 39.567907 -107.008228 214 11669ft 169kts
02-Aug-19 10:19 39.527528 -107.042317 215 13574ft 175kts
02-Aug-19 10:20 39.527575 -107.093984 328 14065ft 223kts
02-Aug-19 10:21 39.585993 -107.139037 329 14007ft 254kts
02-Aug-19 10:22 39.648058 -107.186842 329 14001ft 262kts
02-Aug-19 10:23 39.681201 -107.265288 279 14005ft 271kts
02-Aug-19 10:24 39.692066 -107.363560 279 13998ft 275kts
02-Aug-19 10:25 39.687790 -107.462520 259 14001ft 277kts
02-Aug-19 10:26 39.671632 -107.560904 259 14050ft 276kts
02-Aug-19 10:27 39.655608 -107.658356 257 14127ft 277kts
02-Aug-19 10:28 39.609249 -107.739465 232 14129ft 281kts
02-Aug-19 10:29 39.560353 -107.819310 232 14128ft 281kts
02-Aug-19 10:30 39.512529 -107.899957 247 14096ft 280kts
02-Aug-19 10:31 39.483250 -107.993873 249 14127ft 279kts
02-Aug-19 10:32 39.454350 -108.087877 249 14088ft 280kts
02-Aug-19 10:33 39.425473 -108.182105 249 14038ft 281kts
02-Aug-19 10:34 39.396515 -108.276719 249 13999ft 280kts
02-Aug-19 10:35 39.367768 -108.370764 249 13999ft 280kts
02-Aug-19 10:36 39.339102 -108.464764 249 13686ft 276kts
02-Aug-19 10:37 39.316506 -108.556781 269 12141ft 264kts
02-Aug-19 10:38 39.314830 -108.647122 270 11316ft 253kts
02-Aug-19 10:39 39.310899 -108.736151 244 10461ft 257kts
02-Aug-19 10:40 39.249090 -108.765791 144 8936ft 236kts
02-Aug-19 10:41 39.221984 -108.696323 126 7044ft 205kts
02-Aug-19 10:42 39.191608 -108.647388 124 6569ft 168kts
02-Aug-19 10:43 39.166628 -108.602076 120 5879ft 110kts
02-Aug-19 10:44 39.151260 -108.573991 125 5355ft 92kts
02-Aug-19 10:45 39.136490 -108.547146 126 4880ft 92kts
02-Aug-19 10:46 39.130097 -108.535920 179 4827ft 7kts
02-Aug-19 10:47 39.129367 -108.536326 208 4826ft 0kts
02-Aug-19 10:48 39.129115 -108.536373 179 4825ft 2kts
02-Aug-19 10:49 39.128260 -108.536284 239 4824ft 5kts
02-Aug-19 10:50 39.128276 -108.536382 322 4824ft 0kts
02-Aug-19 10:51 39.128276 -108.536382 322 4824ft 0kts
02-Aug-19 10:52 39.128276 -108.536382 322 4824ft 0kts
02-Aug-19 10:53 39.128276 -108.536382 322 4824ft 0kts
02-Aug-19 10:54 39.128276 -108.536382 322 4824ft 0kts
02-Aug-19 10:55 39.128276 -108.536382 322 4824ft 0kts
02-Aug-19 10:56 39.128276 -108.536382 322 4824ft 0kts
02-Aug-19 10:57 39.128276 -108.536382 322 4824ft 0kts
02-Aug-19 10:58 39.128276 -108.536382 322 4824ft 0kts
02-Aug-19 10:59 39.128276 -108.536382 322 4824ft 0kts

Navigation Log

Ident Type
Flight plan parsing failed, navigation log unavailable